createdAt,value
2022-08-18T00:02:28.912Z,78.28
2022-08-18T00:10:07.992Z,79.95
2022-08-18T00:17:53.844Z,81.61
2022-08-18T00:25:27.858Z,82.81
2022-08-18T00:33:03.044Z,82.20
2022-08-18T00:40:40.778Z,80.90
2022-08-18T00:48:16.419Z,81.77
2022-08-18T00:55:54.126Z,83.25
2022-08-18T01:03:31.159Z,84.28
2022-08-18T01:11:04.991Z,84.51
2022-08-18T01:18:57.801Z,87.00
2022-08-18T01:26:36.877Z,89.81
2022-08-18T01:34:21.479Z,85.64
2022-08-18T01:41:56.846Z,82.22
2022-08-18T01:49:30.750Z,82.32
2022-08-18T01:57:06.134Z,86.78
2022-08-18T02:04:40.231Z,93.42
2022-08-18T02:12:15.413Z,94.65
2022-08-18T02:19:49.444Z,97.90
2022-08-18T02:27:24.720Z,99.34
2022-08-18T02:34:58.536Z,100.00
2022-08-18T02:42:34.464Z,100.00
2022-08-18T02:50:10.917Z,98.17
2022-08-18T02:57:48.916Z,98.74
2022-08-18T03:05:22.851Z,98.07
2022-08-18T03:12:58.130Z,99.98
2022-08-18T03:20:31.902Z,100.00
2022-08-18T03:28:07.399Z,100.00
2022-08-18T03:35:42.026Z,100.00
2022-08-18T03:43:23.781Z,100.00
2022-08-18T03:51:14.812Z,100.00
2022-08-18T03:58:55.540Z,100.00
2022-08-18T04:06:31.888Z,100.00
2022-08-18T04:14:07.345Z,100.00
2022-08-18T04:21:43.621Z,100.00
2022-08-18T04:29:21.777Z,100.00
2022-08-18T04:36:55.690Z,100.00
2022-08-18T04:44:31.900Z,100.00
2022-08-18T04:52:39.314Z,100.00
2022-08-18T05:00:17.362Z,100.00
2022-08-18T05:07:51.222Z,100.00
2022-08-18T05:15:26.588Z,100.00
2022-08-18T05:23:00.405Z,100.00
2022-08-18T05:30:36.965Z,100.00
2022-08-18T05:38:27.999Z,100.00
2022-08-18T05:46:06.763Z,100.00
2022-08-18T05:54:02.608Z,99.03
2022-08-18T06:01:47.307Z,98.69
2022-08-18T06:09:25.049Z,94.95
2022-08-18T06:17:09.567Z,91.07
2022-08-18T06:24:48.035Z,90.45
2022-08-18T06:32:36.188Z,87.55
2022-08-18T06:40:10.696Z,86.89
2022-08-18T06:47:53.839Z,84.89
2022-08-18T06:55:34.836Z,85.49
2022-08-18T07:03:15.103Z,84.70
2022-08-18T07:10:51.478Z,83.61
2022-08-18T07:18:29.963Z,83.13
2022-08-18T07:26:08.859Z,81.69
2022-08-18T07:33:52.386Z,79.80
2022-08-18T07:41:31.681Z,76.26
2022-08-18T07:49:07.791Z,76.73
2022-08-18T07:56:51.444Z,73.38
2022-08-18T08:04:37.075Z,74.60
2022-08-18T08:12:24.404Z,72.46
2022-08-18T08:20:11.887Z,73.34
2022-08-18T08:27:57.220Z,73.83
2022-08-18T08:35:49.706Z,73.42
2022-08-18T08:43:31.896Z,73.49
2022-08-18T08:51:19.686Z,70.55
2022-08-18T08:59:00.427Z,69.42
2022-08-18T09:06:45.501Z,67.96
2022-08-18T09:14:48.747Z,69.33
2022-08-18T09:22:38.140Z,65.98
2022-08-18T09:30:42.134Z,64.37
2022-08-18T09:38:41.287Z,63.74
2022-08-18T09:46:55.872Z,61.05
2022-08-18T09:54:31.868Z,60.79
2022-08-18T10:02:18.752Z,56.37
2022-08-18T10:11:01.788Z,56.95
2022-08-18T10:18:34.893Z,55.17
2022-08-18T10:27:09.417Z,54.50
2022-08-18T10:34:51.978Z,54.69
2022-08-18T10:50:30.415Z,51.42
2022-08-18T10:58:19.021Z,48.60
2022-08-18T11:06:04.863Z,48.81
2022-08-18T11:13:44.990Z,47.01
2022-08-18T11:21:33.284Z,45.15
2022-08-18T11:29:22.212Z,45.35
2022-08-18T11:36:59.880Z,43.16
2022-08-18T11:44:36.357Z,43.63
2022-08-18T12:00:42.719Z,44.72
2022-08-18T12:08:50.966Z,44.07
2022-08-18T12:16:32.887Z,44.87
2022-08-18T12:24:14.601Z,43.71
2022-08-18T12:31:51.426Z,42.87
2022-08-18T12:39:26.735Z,41.81
2022-08-18T12:47:02.477Z,41.06
2022-08-18T12:54:39.207Z,41.81
2022-08-18T13:02:29.568Z,40.63
2022-08-18T13:10:05.255Z,39.89
2022-08-18T13:17:41.535Z,39.43
2022-08-18T13:25:32.462Z,38.32
2022-08-18T13:33:35.181Z,39.98
2022-08-18T13:41:08.575Z,39.41
2022-08-18T13:48:42.699Z,38.70
2022-08-18T13:56:20.611Z,39.44
2022-08-18T14:04:05.647Z,41.43
2022-08-18T14:11:51.226Z,40.78
2022-08-18T14:19:42.375Z,40.24
2022-08-18T14:27:18.785Z,42.19
2022-08-18T14:34:53.409Z,40.83
2022-08-18T14:42:41.728Z,39.68
2022-08-18T14:50:29.577Z,40.58
2022-08-18T14:58:07.270Z,40.43
2022-08-18T15:05:42.437Z,39.66
2022-08-18T15:13:17.869Z,39.86
2022-08-18T15:21:19.393Z,40.13
2022-08-18T15:29:09.801Z,41.28
2022-08-18T15:36:43.702Z,40.92
2022-08-18T15:44:21.680Z,41.02
2022-08-18T15:51:55.618Z,41.69
2022-08-18T15:59:34.122Z,42.37
2022-08-18T16:07:25.051Z,43.42
2022-08-18T16:22:53.214Z,44.42
2022-08-18T16:30:29.979Z,45.43
2022-08-18T16:38:06.293Z,44.39
2022-08-18T16:45:42.893Z,44.85
2022-08-18T16:53:17.149Z,46.82
2022-08-18T17:01:12.638Z,49.54
2022-08-18T17:08:52.639Z,52.02
2022-08-18T17:16:30.426Z,54.14
2022-08-18T17:24:08.020Z,56.70
2022-08-18T17:31:51.184Z,60.11
2022-08-18T17:39:29.384Z,61.98
2022-08-18T17:47:07.028Z,64.69
2022-08-18T17:54:45.940Z,65.87
2022-08-18T18:02:29.207Z,67.30
2022-08-18T18:10:06.811Z,69.83
2022-08-18T18:17:43.866Z,69.76
2022-08-18T18:25:34.508Z,69.83
2022-08-18T18:33:17.133Z,69.68
2022-08-18T18:40:57.546Z,70.55
2022-08-18T18:48:51.557Z,72.39
2022-08-18T18:56:31.983Z,72.41
2022-08-18T19:04:15.183Z,73.55
2022-08-18T19:12:03.477Z,74.00
2022-08-18T19:19:43.987Z,74.12
2022-08-18T19:27:34.177Z,75.90
2022-08-18T19:35:14.292Z,77.17
2022-08-18T19:42:55.504Z,78.96
2022-08-18T19:50:36.205Z,78.70
2022-08-18T19:58:36.510Z,79.32
2022-08-18T20:06:34.114Z,80.07
2022-08-18T20:14:12.505Z,80.08
2022-08-18T20:21:49.341Z,80.93
2022-08-18T20:29:42.788Z,84.23
2022-08-18T20:37:27.186Z,97.85
2022-08-18T20:45:11.448Z,100.00
2022-08-18T20:52:58.015Z,100.00
2022-08-18T21:00:36.147Z,100.00
2022-08-18T21:08:27.271Z,100.00
2022-08-18T21:16:01.077Z,100.00
2022-08-18T21:23:38.195Z,100.00
2022-08-18T21:31:41.986Z,100.00
2022-08-18T21:39:21.203Z,100.00
2022-08-18T21:47:05.793Z,100.00
2022-08-18T21:54:41.585Z,100.00
2022-08-18T22:02:21.874Z,100.00
2022-08-18T22:10:20.100Z,100.00
2022-08-18T22:17:57.986Z,100.00
2022-08-18T22:25:33.410Z,100.00
2022-08-18T22:33:07.160Z,100.00
2022-08-18T22:40:44.693Z,100.00
2022-08-18T22:48:18.766Z,100.00
2022-08-18T22:55:54.240Z,100.00
2022-08-18T23:03:29.984Z,100.00
2022-08-18T23:11:07.096Z,100.00
2022-08-18T23:18:40.985Z,100.00
2022-08-18T23:26:16.127Z,100.00
2022-08-18T23:33:57.014Z,100.00
2022-08-18T23:41:32.283Z,100.00
2022-08-18T23:49:10.780Z,100.00
2022-08-18T23:56:47.266Z,100.00
